createdAt,value
2023-03-12T00:00:09.017Z,4.90
2023-03-12T00:02:36.211Z,4.90
2023-03-12T00:05:04.298Z,5.00
2023-03-12T00:07:31.078Z,5.00
2023-03-12T00:09:57.828Z,5.00
2023-03-12T00:12:24.689Z,5.10
2023-03-12T00:14:51.592Z,5.10
2023-03-12T00:17:18.307Z,5.10
2023-03-12T00:19:45.613Z,5.10
2023-03-12T00:22:12.350Z,5.10
2023-03-12T00:24:39.144Z,5.10
2023-03-12T00:27:07.189Z,5.10
2023-03-12T00:29:34.048Z,5.00
2023-03-12T00:32:00.935Z,5.00
2023-03-12T00:34:27.722Z,5.00
2023-03-12T00:36:54.433Z,5.00
2023-03-12T00:39:38.352Z,4.90
2023-03-12T00:42:05.313Z,4.90
2023-03-12T00:44:32.059Z,4.90
2023-03-12T00:46:58.857Z,4.90
2023-03-12T00:49:25.640Z,4.90
2023-03-12T00:51:52.408Z,4.80
2023-03-12T00:54:19.470Z,4.90
2023-03-12T00:56:46.963Z,4.90
2023-03-12T00:59:15.631Z,4.90
2023-03-12T01:01:43.545Z,4.80
2023-03-12T01:04:12.236Z,4.90
2023-03-12T01:06:40.616Z,4.80
2023-03-12T01:09:09.562Z,4.80
2023-03-12T01:11:38.054Z,4.80
2023-03-12T01:14:08.110Z,4.80
2023-03-12T01:16:35.008Z,4.90
2023-03-12T01:19:03.426Z,4.90
2023-03-12T01:21:37.091Z,4.90
2023-03-12T01:24:04.061Z,5.00
2023-03-12T01:26:30.882Z,5.00
2023-03-12T01:28:57.753Z,5.00
2023-03-12T01:31:25.058Z,5.00
2023-03-12T01:33:53.050Z,5.00
2023-03-12T01:36:21.525Z,5.00
2023-03-12T01:38:53.099Z,5.00
2023-03-12T01:41:21.102Z,5.00
2023-03-12T01:43:48.320Z,5.10
2023-03-12T01:46:33.514Z,5.10
2023-03-12T01:49:00.658Z,5.10
2023-03-12T01:51:33.320Z,5.10
2023-03-12T01:54:09.607Z,5.20
2023-03-12T01:56:38.488Z,5.20
2023-03-12T01:59:17.108Z,5.10
2023-03-12T02:01:44.849Z,5.10
2023-03-12T02:04:13.655Z,5.10
2023-03-12T02:06:56.462Z,5.00
2023-03-12T02:09:23.613Z,5.00
2023-03-12T02:11:50.534Z,5.00
2023-03-12T02:14:18.579Z,5.00
2023-03-12T02:16:47.246Z,5.00
2023-03-12T02:19:30.585Z,5.00
2023-03-12T02:21:58.587Z,4.90
2023-03-12T02:24:33.488Z,4.80
2023-03-12T02:27:02.423Z,4.80
2023-03-12T02:29:33.069Z,4.70
2023-03-12T02:32:03.049Z,4.70
2023-03-12T02:34:29.972Z,4.60
2023-03-12T02:36:58.089Z,4.50
2023-03-12T02:39:25.238Z,4.40
2023-03-12T02:41:58.837Z,4.40
2023-03-12T02:44:33.705Z,4.40
2023-03-12T02:47:01.751Z,4.40
2023-03-12T02:49:33.984Z,4.30
2023-03-12T02:52:01.790Z,4.30
2023-03-12T02:54:28.966Z,4.40
2023-03-12T02:56:57.606Z,4.40
2023-03-12T02:59:27.823Z,4.50
2023-03-12T03:01:57.329Z,4.50
2023-03-12T03:04:25.437Z,4.50
2023-03-12T03:06:52.531Z,4.50
2023-03-12T03:09:22.234Z,4.60
2023-03-12T03:11:50.390Z,4.60
2023-03-12T03:14:18.082Z,4.70
2023-03-12T03:16:44.891Z,4.70
2023-03-12T03:19:11.698Z,4.70
2023-03-12T03:21:38.616Z,4.80
2023-03-12T03:24:05.924Z,4.80
2023-03-12T03:26:32.784Z,4.80
2023-03-12T03:28:59.624Z,4.80
2023-03-12T03:31:26.543Z,4.80
2023-03-12T03:33:53.496Z,4.90
2023-03-12T03:36:20.293Z,4.90
2023-03-12T03:38:49.587Z,4.90
2023-03-12T03:41:19.036Z,4.90
2023-03-12T03:43:46.291Z,4.90
2023-03-12T03:46:14.510Z,5.00
2023-03-12T03:48:42.242Z,5.00
2023-03-12T03:51:10.400Z,5.00
2023-03-12T03:53:37.521Z,5.00
2023-03-12T03:56:13.816Z,5.00
2023-03-12T03:58:40.612Z,4.90
2023-03-12T04:01:07.630Z,5.00
2023-03-12T04:03:34.807Z,5.00
2023-03-12T04:06:04.482Z,5.00
2023-03-12T04:08:32.986Z,5.10
2023-03-12T04:10:59.733Z,5.10
2023-03-12T04:13:26.541Z,5.20
2023-03-12T04:15:54.347Z,5.20
2023-03-12T04:18:21.192Z,5.20
2023-03-12T04:20:48.014Z,5.30
2023-03-12T04:23:14.855Z,5.30
2023-03-12T04:25:41.672Z,5.40
2023-03-12T04:28:09.177Z,5.30
2023-03-12T04:30:38.285Z,5.40
2023-03-12T04:33:06.678Z,5.40
2023-03-12T04:35:34.093Z,5.40
2023-03-12T04:38:02.005Z,5.40
2023-03-12T04:40:28.861Z,5.40
2023-03-12T04:42:55.828Z,5.40
2023-03-12T04:45:22.644Z,5.40
2023-03-12T04:47:49.435Z,5.40
2023-03-12T04:50:16.400Z,5.40
2023-03-12T04:52:43.172Z,5.40
2023-03-12T04:57:51.767Z,5.40
2023-03-12T05:00:18.880Z,5.50
2023-03-12T05:02:45.635Z,5.50
2023-03-12T05:05:12.438Z,5.50
2023-03-12T05:07:39.227Z,5.50
2023-03-12T05:10:06.527Z,5.50
2023-03-12T05:12:33.294Z,5.50
2023-03-12T05:15:00.133Z,5.50
2023-03-12T05:17:26.923Z,5.60
2023-03-12T05:19:53.663Z,5.60
2023-03-12T05:22:20.384Z,5.50
2023-03-12T05:24:47.173Z,5.60
2023-03-12T05:27:13.888Z,5.60
2023-03-12T05:29:40.759Z,5.50
2023-03-12T05:32:07.900Z,5.50
2023-03-12T05:34:34.932Z,5.50
2023-03-12T05:37:01.801Z,5.50
2023-03-12T05:39:28.684Z,5.50
2023-03-12T05:41:57.190Z,5.40
2023-03-12T05:44:24.766Z,5.30
2023-03-12T05:46:52.261Z,5.20
2023-03-12T05:49:20.616Z,5.20
2023-03-12T05:51:50.918Z,5.20
2023-03-12T05:54:18.048Z,5.20
2023-03-12T05:56:45.031Z,5.20
2023-03-12T05:59:11.991Z,5.20
2023-03-12T06:01:39.547Z,5.20
2023-03-12T06:04:06.487Z,5.20
2023-03-12T06:06:34.757Z,5.20
2023-03-12T06:09:01.791Z,5.10
2023-03-12T06:11:28.614Z,5.00
2023-03-12T06:13:56.725Z,5.00
2023-03-12T06:16:26.571Z,4.90
2023-03-12T06:18:55.608Z,4.90
2023-03-12T06:21:25.633Z,4.90
2023-03-12T06:23:52.949Z,4.90
2023-03-12T06:26:21.217Z,4.80
2023-03-12T06:28:50.162Z,4.80
2023-03-12T06:31:17.878Z,4.90
2023-03-12T06:33:44.835Z,4.80
2023-03-12T06:36:12.256Z,4.80
2023-03-12T06:38:39.424Z,4.80
2023-03-12T06:41:24.212Z,4.90
2023-03-12T06:43:51.410Z,4.90
2023-03-12T06:46:25.628Z,5.00
2023-03-12T06:48:52.610Z,5.00
2023-03-12T06:51:19.425Z,5.10
2023-03-12T06:53:46.981Z,5.00
2023-03-12T06:56:14.737Z,5.00
2023-03-12T06:58:42.518Z,5.00
2023-03-12T07:01:09.405Z,5.00
2023-03-12T07:03:36.476Z,5.10
2023-03-12T07:06:04.995Z,5.10
2023-03-12T07:08:31.883Z,5.00
2023-03-12T07:11:01.804Z,5.00
2023-03-12T07:13:29.469Z,5.00
2023-03-12T07:15:56.389Z,5.10
2023-03-12T07:18:23.339Z,5.10
2023-03-12T07:20:50.147Z,5.00
2023-03-12T07:23:16.954Z,5.00
2023-03-12T07:25:44.071Z,5.00
2023-03-12T07:28:12.525Z,5.10
2023-03-12T07:30:40.341Z,5.20
2023-03-12T07:33:12.743Z,5.40
2023-03-12T07:35:40.535Z,5.40
2023-03-12T07:38:09.942Z,5.40
2023-03-12T07:40:37.122Z,5.50
2023-03-12T07:43:06.967Z,5.50
2023-03-12T07:45:33.849Z,5.50
2023-03-12T07:48:00.676Z,5.40
2023-03-12T07:50:27.601Z,5.50
2023-03-12T07:52:54.464Z,5.50
2023-03-12T07:55:21.662Z,5.50
2023-03-12T07:57:49.229Z,5.50
2023-03-12T08:00:17.356Z,5.50
2023-03-12T08:02:45.961Z,5.50
2023-03-12T08:05:12.958Z,5.50
2023-03-12T08:07:39.937Z,5.50
2023-03-12T08:10:09.264Z,5.60
2023-03-12T08:12:37.665Z,5.70
2023-03-12T08:15:06.188Z,5.70
2023-03-12T08:17:33.116Z,5.70
2023-03-12T08:19:59.977Z,5.70
2023-03-12T08:22:26.964Z,5.80
2023-03-12T08:24:53.745Z,5.80
2023-03-12T08:27:20.680Z,5.80
2023-03-12T08:29:47.654Z,5.90
2023-03-12T08:32:14.985Z,5.90
2023-03-12T08:34:42.256Z,5.90
2023-03-12T08:37:09.255Z,6.00
2023-03-12T08:39:37.265Z,6.00
2023-03-12T08:42:06.033Z,6.00
2023-03-12T08:44:35.267Z,6.10
2023-03-12T08:47:03.554Z,6.10
2023-03-12T08:49:30.533Z,6.20
2023-03-12T08:51:57.612Z,6.20
2023-03-12T08:54:25.861Z,6.30
2023-03-12T08:56:53.183Z,6.30
2023-03-12T08:59:20.859Z,6.30
2023-03-12T09:01:48.232Z,6.40
2023-03-12T09:04:16.679Z,6.40
2023-03-12T09:06:44.802Z,6.50
2023-03-12T09:09:11.698Z,6.60
2023-03-12T09:11:41.277Z,6.70
2023-03-12T09:17:03.290Z,6.70
2023-03-12T09:19:31.166Z,6.70
2023-03-12T09:22:00.306Z,6.80
2023-03-12T09:24:27.097Z,6.80
2023-03-12T09:26:54.022Z,6.90
2023-03-12T09:29:21.640Z,7.00
2023-03-12T09:31:48.407Z,7.00
2023-03-12T09:34:15.100Z,7.00
2023-03-12T09:36:43.211Z,7.00
2023-03-12T09:39:10.421Z,7.10
2023-03-12T09:41:40.018Z,7.10
2023-03-12T09:44:43.437Z,7.20
2023-03-12T09:47:22.331Z,7.20
2023-03-12T09:49:58.898Z,7.40
2023-03-12T09:52:34.291Z,7.50
2023-03-12T09:55:18.694Z,7.60
2023-03-12T09:57:53.718Z,7.60
2023-03-12T10:00:24.005Z,7.70
2023-03-12T10:03:32.103Z,7.80
2023-03-12T10:06:23.209Z,7.90
2023-03-12T10:09:21.739Z,8.00
2023-03-12T10:12:19.889Z,8.20
2023-03-12T10:15:15.579Z,8.30
2023-03-12T10:17:56.036Z,8.50
2023-03-12T10:20:41.445Z,8.60
2023-03-12T10:23:18.309Z,8.50
2023-03-12T10:26:08.358Z,8.90
2023-03-12T10:28:41.875Z,9.10
2023-03-12T10:31:20.222Z,9.20
2023-03-12T10:34:02.176Z,9.30
2023-03-12T10:36:35.230Z,9.40
2023-03-12T10:39:07.467Z,9.50
2023-03-12T10:41:41.877Z,9.60
2023-03-12T10:44:14.488Z,9.60
2023-03-12T10:46:52.308Z,9.70
2023-03-12T10:49:21.994Z,9.80
2023-03-12T10:51:57.522Z,10.00
2023-03-12T10:54:40.638Z,10.10
2023-03-12T10:57:08.744Z,10.20
2023-03-12T10:59:39.135Z,10.30
2023-03-12T11:02:46.764Z,10.40
2023-03-12T11:05:50.573Z,10.60
2023-03-12T11:08:29.072Z,10.80
2023-03-12T11:10:58.008Z,11.00
2023-03-12T11:13:36.741Z,11.00
2023-03-12T11:16:25.556Z,11.10
2023-03-12T11:19:01.596Z,11.20
2023-03-12T11:21:30.036Z,11.40
2023-03-12T11:23:56.719Z,11.40
2023-03-12T11:26:33.814Z,11.50
2023-03-12T11:29:33.356Z,11.50
2023-03-12T11:32:23.493Z,11.60
2023-03-12T11:34:50.843Z,11.60
2023-03-12T11:37:24.834Z,11.70
2023-03-12T11:40:10.761Z,11.70
2023-03-12T11:42:54.209Z,11.70
2023-03-12T11:45:39.408Z,11.70
2023-03-12T11:48:44.524Z,11.70
2023-03-12T11:51:22.759Z,11.70
2023-03-12T11:54:20.422Z,11.70
2023-03-12T11:56:55.666Z,11.80
2023-03-12T11:59:43.492Z,11.70
2023-03-12T12:02:32.126Z,11.80
2023-03-12T12:05:21.010Z,11.90
2023-03-12T12:08:02.222Z,11.90
2023-03-12T12:10:40.601Z,12.00
2023-03-12T12:13:24.025Z,12.10
2023-03-12T12:16:24.285Z,12.10
2023-03-12T12:19:04.606Z,12.20
2023-03-12T12:21:55.668Z,12.30
2023-03-12T12:24:43.109Z,12.30
2023-03-12T12:27:22.582Z,12.40
2023-03-12T12:30:21.549Z,12.40
2023-03-12T12:33:29.060Z,12.40
2023-03-12T12:35:56.746Z,12.40
2023-03-12T12:38:38.128Z,12.50
2023-03-12T12:41:18.355Z,12.50
2023-03-12T12:43:50.210Z,12.60
2023-03-12T12:46:28.271Z,12.70
2023-03-12T12:49:00.290Z,12.60
2023-03-12T12:51:35.652Z,12.70
2023-03-12T12:54:16.929Z,12.70
2023-03-12T12:57:23.070Z,12.80
2023-03-12T13:00:23.906Z,12.80
2023-03-12T13:02:52.941Z,12.90
2023-03-12T13:05:46.064Z,13.00
2023-03-12T13:08:36.379Z,13.10
2023-03-12T13:11:22.910Z,13.10
2023-03-12T13:14:11.351Z,13.20
2023-03-12T13:16:40.541Z,13.20
2023-03-12T13:19:16.572Z,13.20
2023-03-12T13:22:13.547Z,13.20
2023-03-12T13:25:19.719Z,13.20
2023-03-12T13:27:47.009Z,13.30
2023-03-12T13:30:38.823Z,13.30
2023-03-12T13:33:11.759Z,13.20
2023-03-12T13:35:40.003Z,13.20
2023-03-12T13:38:12.832Z,13.20
2023-03-12T13:40:53.231Z,13.20
2023-03-12T13:43:41.590Z,13.30
2023-03-12T13:46:28.106Z,13.30
2023-03-12T13:49:05.750Z,13.40
2023-03-12T13:51:32.834Z,13.40
2023-03-12T13:54:02.517Z,13.30
2023-03-12T13:56:37.462Z,13.30
2023-03-12T13:59:08.537Z,13.30
2023-03-12T14:01:46.937Z,13.30
2023-03-12T14:04:34.492Z,13.30
2023-03-12T14:07:19.912Z,13.30
2023-03-12T14:10:20.634Z,13.30
2023-03-12T14:12:50.847Z,13.30
2023-03-12T14:15:39.704Z,13.30
2023-03-12T14:18:21.561Z,13.30
2023-03-12T14:21:00.429Z,13.30
2023-03-12T14:23:35.051Z,13.30
2023-03-12T14:26:04.637Z,13.40
2023-03-12T14:28:39.729Z,13.40
2023-03-12T14:31:17.685Z,13.40
2023-03-12T14:34:02.948Z,13.50
2023-03-12T14:36:39.447Z,13.50
2023-03-12T14:39:32.186Z,13.60
2023-03-12T14:42:01.779Z,13.60
2023-03-12T14:44:30.532Z,13.60
2023-03-12T14:47:04.751Z,13.60
2023-03-12T14:49:32.080Z,13.70
2023-03-12T14:54:41.982Z,13.60
2023-03-12T14:57:15.606Z,13.50
2023-03-12T14:59:51.921Z,13.50
2023-03-12T15:02:21.071Z,13.50
2023-03-12T15:04:50.033Z,13.50
2023-03-12T15:07:21.929Z,13.50
2023-03-12T15:09:52.426Z,13.50
2023-03-12T15:12:24.197Z,13.50
2023-03-12T15:14:55.914Z,13.40
2023-03-12T15:17:26.323Z,13.50
2023-03-12T15:19:56.630Z,13.30
2023-03-12T15:22:27.783Z,13.40
2023-03-12T15:25:01.594Z,13.40
2023-03-12T15:27:28.777Z,13.40
2023-03-12T15:29:57.250Z,13.40
2023-03-12T15:32:26.171Z,13.40
2023-03-12T15:34:56.575Z,13.40
2023-03-12T15:37:41.279Z,13.40
2023-03-12T15:40:25.532Z,13.50
2023-03-12T15:43:06.929Z,13.40
2023-03-12T15:45:40.432Z,13.50
2023-03-12T15:48:36.774Z,13.50
2023-03-12T15:51:13.823Z,13.60
2023-03-12T15:53:43.672Z,13.50
2023-03-12T15:56:12.714Z,13.50
2023-03-12T15:58:41.666Z,13.50
2023-03-12T16:01:17.922Z,13.50
2023-03-12T16:03:46.056Z,13.50
2023-03-12T16:06:25.544Z,13.50
2023-03-12T16:09:05.558Z,13.50
2023-03-12T16:11:35.760Z,13.50
2023-03-12T16:14:27.233Z,13.50
2023-03-12T16:16:54.285Z,13.50
2023-03-12T16:19:24.272Z,13.50
2023-03-12T16:22:06.075Z,13.60
2023-03-12T16:24:34.182Z,13.60
2023-03-12T16:27:07.130Z,13.60
2023-03-12T16:29:43.220Z,13.50
2023-03-12T16:32:28.976Z,13.50
2023-03-12T16:34:55.742Z,13.50
2023-03-12T16:37:27.397Z,13.50
2023-03-12T16:39:55.748Z,13.40
2023-03-12T16:42:30.470Z,13.40
2023-03-12T16:45:00.374Z,13.50
2023-03-12T16:47:27.705Z,13.50
2023-03-12T16:49:56.887Z,13.50
2023-03-12T16:52:29.600Z,13.50
2023-03-12T16:54:56.908Z,13.50
2023-03-12T17:04:52.789Z,13.30
2023-03-12T17:07:19.777Z,13.40
2023-03-12T17:09:53.497Z,13.40
2023-03-12T17:15:29.151Z,13.30
2023-03-12T17:18:07.049Z,13.40
2023-03-12T17:20:36.489Z,13.30
2023-03-12T17:23:06.388Z,13.30
2023-03-12T17:28:28.780Z,13.20
2023-03-12T17:30:59.113Z,13.20
2023-03-12T17:33:30.572Z,13.20
2023-03-12T17:36:00.296Z,13.10
2023-03-12T17:41:26.924Z,13.10
2023-03-12T17:46:56.588Z,13.00
2023-03-12T17:49:25.824Z,13.00
2023-03-12T17:51:53.740Z,13.00
2023-03-12T17:54:25.008Z,12.90
2023-03-12T17:56:51.739Z,12.90
2023-03-12T17:59:19.194Z,12.90
2023-03-12T18:01:46.397Z,12.80
2023-03-12T18:04:13.245Z,12.70
2023-03-12T18:06:41.588Z,12.70
2023-03-12T18:09:08.549Z,12.70
2023-03-12T18:14:18.466Z,12.60
2023-03-12T18:16:53.434Z,12.60
2023-03-12T18:19:26.456Z,12.60
2023-03-12T18:21:56.619Z,12.50
2023-03-12T18:24:24.860Z,12.50
2023-03-12T18:26:55.339Z,12.50
2023-03-12T18:29:22.392Z,12.40
2023-03-12T18:31:50.817Z,12.40
2023-03-12T18:43:46.135Z,12.50
2023-03-12T18:46:14.833Z,12.50
2023-03-12T18:48:44.379Z,12.60
2023-03-12T18:51:11.355Z,12.50
2023-03-12T18:53:38.683Z,12.50
2023-03-12T18:56:06.300Z,12.60
2023-03-12T18:58:33.322Z,12.60
2023-03-12T19:01:01.900Z,12.60
2023-03-12T19:03:36.457Z,12.60
2023-03-12T19:06:07.469Z,12.60
2023-03-12T19:08:34.957Z,12.60
2023-03-12T19:11:05.687Z,12.60
2023-03-12T19:13:33.674Z,12.60
2023-03-12T19:16:04.296Z,12.60
2023-03-12T19:18:31.175Z,12.50
2023-03-12T19:20:57.930Z,12.40
2023-03-12T19:23:27.786Z,12.40
2023-03-12T19:25:55.154Z,12.40
2023-03-12T19:28:22.113Z,12.40
2023-03-12T19:30:51.101Z,12.40
2023-03-12T19:33:18.643Z,12.30
2023-03-12T19:35:45.566Z,12.20
2023-03-12T19:38:12.453Z,12.20
2023-03-12T19:40:39.229Z,12.20
2023-03-12T19:43:07.313Z,12.20
2023-03-12T19:45:37.585Z,12.20
2023-03-12T19:48:04.881Z,12.20
2023-03-12T19:50:31.700Z,12.20
2023-03-12T19:52:58.646Z,12.20
2023-03-12T19:55:25.457Z,12.10
2023-03-12T19:57:52.740Z,12.10
2023-03-12T20:00:21.139Z,12.10
2023-03-12T20:02:48.287Z,12.10
2023-03-12T20:05:15.298Z,12.10
2023-03-12T20:07:45.991Z,12.10
2023-03-12T20:10:13.101Z,12.00
2023-03-12T20:12:40.030Z,12.10
2023-03-12T20:15:09.671Z,12.10
2023-03-12T20:17:36.704Z,12.10
2023-03-12T20:20:06.678Z,12.10
2023-03-12T20:22:39.706Z,12.10
2023-03-12T20:25:12.616Z,12.20
2023-03-12T20:27:40.499Z,12.20
2023-03-12T20:30:09.709Z,12.20
2023-03-12T20:32:36.668Z,12.10
2023-03-12T20:35:04.441Z,12.10
2023-03-12T20:37:32.064Z,12.10
2023-03-12T20:39:58.836Z,12.10
2023-03-12T20:42:25.642Z,12.10
2023-03-12T20:44:52.405Z,12.10
2023-03-12T20:47:20.618Z,12.10
2023-03-12T20:49:47.408Z,12.10
2023-03-12T20:52:15.220Z,12.00
2023-03-12T20:54:42.226Z,12.00
2023-03-12T20:57:09.030Z,11.90
2023-03-12T20:59:35.798Z,11.90
2023-03-12T21:02:03.905Z,11.90
2023-03-12T21:04:30.744Z,11.80
2023-03-12T21:06:57.666Z,11.80
2023-03-12T21:09:24.396Z,11.80
2023-03-12T21:11:51.226Z,11.80
2023-03-12T21:14:18.041Z,11.80
2023-03-12T21:16:45.345Z,11.70
2023-03-12T21:19:12.378Z,11.70
2023-03-12T21:21:39.122Z,11.80
2023-03-12T21:24:06.061Z,11.80
2023-03-12T21:26:34.071Z,11.80
2023-03-12T21:29:01.114Z,11.80
2023-03-12T21:31:28.247Z,11.70
2023-03-12T21:33:56.230Z,11.70
2023-03-12T21:36:23.321Z,11.70
2023-03-12T21:38:52.184Z,11.70
2023-03-12T21:41:21.353Z,11.70
2023-03-12T21:43:48.811Z,11.70
2023-03-12T21:46:21.616Z,11.70
2023-03-12T21:48:49.793Z,11.80
2023-03-12T21:51:18.215Z,11.80
2023-03-12T21:53:45.266Z,11.80
2023-03-12T21:56:12.842Z,11.80
2023-03-12T21:58:39.638Z,11.80
2023-03-12T22:01:11.945Z,11.80
2023-03-12T22:03:40.207Z,11.80
2023-03-12T22:06:07.609Z,11.70
2023-03-12T22:08:34.746Z,11.70
2023-03-12T22:11:02.098Z,11.70
2023-03-12T22:13:29.351Z,11.70
2023-03-12T22:15:58.265Z,11.70
2023-03-12T22:18:25.583Z,11.70
2023-03-12T22:20:57.297Z,11.70
2023-03-12T22:23:24.906Z,11.70
2023-03-12T22:25:52.931Z,11.70
2023-03-12T22:28:25.688Z,11.70
2023-03-12T22:31:04.779Z,11.70
2023-03-12T22:33:32.425Z,11.70
2023-03-12T22:35:59.403Z,11.70
2023-03-12T22:38:28.980Z,11.80
2023-03-12T22:40:56.056Z,11.80
2023-03-12T22:43:26.929Z,11.70
2023-03-12T22:45:55.225Z,11.70
2023-03-12T22:48:22.070Z,11.70
2023-03-12T22:50:55.930Z,11.70
2023-03-12T22:53:25.816Z,11.70
2023-03-12T22:55:59.843Z,11.70
2023-03-12T22:58:27.218Z,11.70
2023-03-12T23:01:15.811Z,11.70
2023-03-12T23:03:45.375Z,11.70
2023-03-12T23:06:17.531Z,11.70
2023-03-12T23:08:46.284Z,11.70
2023-03-12T23:11:15.444Z,11.70
2023-03-12T23:13:44.724Z,11.80
2023-03-12T23:16:17.876Z,11.80
2023-03-12T23:18:44.969Z,11.80
2023-03-12T23:21:16.486Z,11.80
2023-03-12T23:23:44.112Z,11.80
2023-03-12T23:26:29.329Z,11.80
2023-03-12T23:28:58.132Z,11.80
2023-03-12T23:31:27.592Z,11.80
2023-03-12T23:33:56.098Z,11.80
2023-03-12T23:36:24.746Z,11.80
2023-03-12T23:38:51.914Z,11.80
2023-03-12T23:41:21.408Z,11.80
2023-03-12T23:43:50.072Z,11.80
2023-03-12T23:46:17.849Z,11.80
2023-03-12T23:48:45.780Z,11.80
2023-03-12T23:51:21.734Z,11.80
2023-03-12T23:53:51.334Z,11.80
2023-03-12T23:56:24.573Z,11.80
2023-03-12T23:58:51.542Z,11.80
